Time;durP1;ratioP1;P1;durP2;ratioP2;P2;SDS_P1;SDS_P2;PMS_P1;PMS_P2;Temp;Humidity;BMP_temperature;BMP_pressure;BME280_temperature;BME280_humidity;BME280_pressure;Samples;Min_cycle;Max_cycle;Signal;HPM_P1;HPM_P2
2022/05/16 00:01:55;;;;;;;10.00;3.83;;;13.60;99.90;;;;;;5015273;28;20403;-70
2022/05/16 00:04:20;;;;;;;6.68;3.63;;;13.60;99.90;;;;;;5015950;28;20060;-70
2022/05/16 00:06:47;;;;;;;6.57;3.50;;;13.50;99.90;;;;;;5014121;28;20541;-70
2022/05/16 00:09:12;;;;;;;12.25;3.65;;;13.40;99.90;;;;;;5014825;28;20485;-70
2022/05/16 00:11:39;;;;;;;5.82;3.50;;;13.40;99.90;;;;;;5014254;28;20056;-69
2022/05/16 00:14:05;;;;;;;7.30;3.75;;;13.30;99.90;;;;;;5015685;28;20363;-70
2022/05/16 00:16:31;;;;;;;5.88;3.25;;;13.30;99.90;;;;;;5015128;28;20045;-70
2022/05/16 00:18:57;;;;;;;6.40;3.63;;;13.30;99.90;;;;;;5014337;28;20161;-70
2022/05/16 00:21:22;;;;;;;6.93;3.72;;;13.30;99.90;;;;;;5014887;28;20045;-70
2022/05/16 00:23:48;;;;;;;6.00;3.47;;;13.30;99.90;;;;;;5014883;28;20050;-70
2022/05/16 00:26:14;;;;;;;9.57;3.92;;;13.30;99.90;;;;;;5014925;28;20057;-70
2022/05/16 00:28:40;;;;;;;8.05;3.50;;;13.30;99.90;;;;;;5014805;28;20160;-70
2022/05/16 00:31:06;;;;;;;6.35;3.58;;;13.30;99.90;;;;;;5015612;28;20091;-70
2022/05/16 00:33:32;;;;;;;5.18;3.45;;;13.20;99.90;;;;;;5014755;28;20046;-70
2022/05/16 00:35:58;;;;;;;8.15;3.90;;;13.20;99.90;;;;;;5014664;28;20052;-70
2022/05/16 00:38:24;;;;;;;7.13;3.65;;;13.20;99.90;;;;;;5015181;28;20050;-70
2022/05/16 00:40:49;;;;;;;6.75;3.60;;;13.10;99.90;;;;;;5014546;28;20076;-69
2022/05/16 00:43:24;;;;;;;6.97;3.25;;;13.10;99.90;;;;;;5014347;28;20108;-70
2022/05/16 00:45:50;;;;;;;7.03;3.28;;;13.10;99.90;;;;;;5014940;28;20446;-69
2022/05/16 00:48:16;;;;;;;10.50;3.20;;;13.10;99.90;;;;;;5014476;28;20050;-69
2022/05/16 00:50:42;;;;;;;7.60;3.20;;;13.00;99.90;;;;;;5014953;28;20125;-70
2022/05/16 00:53:10;;;;;;;5.97;3.22;;;13.00;99.90;;;;;;5014433;28;20073;-70
2022/05/16 00:55:37;;;;;;;8.13;3.35;;;13.00;99.90;;;;;;5014349;28;20096;-69
2022/05/16 00:58:15;;;;;;;6.38;2.95;;;13.00;99.90;;;;;;5014003;28;20504;-70
2022/05/16 01:00:42;;;;;;;7.90;3.33;;;13.00;99.90;;;;;;5014249;28;20129;-70
2022/05/16 01:06:06;;;;;;;5.65;3.70;;;12.90;99.90;;;;;;5014545;28;20461;-70
2022/05/16 01:08:34;;;;;;;7.03;3.65;;;12.90;99.90;;;;;;5014214;28;20092;-70
2022/05/16 01:11:08;;;;;;;6.60;2.88;;;12.80;99.90;;;;;;5014167;28;20041;-69
2022/05/16 01:13:33;;;;;;;6.38;3.35;;;12.80;99.90;;;;;;5014496;28;20103;-70
2022/05/16 01:16:01;;;;;;;7.72;3.47;;;12.80;99.90;;;;;;5029572;28;20538;-69
2022/05/16 01:18:28;;;;;;;4.10;2.85;;;12.80;99.90;;;;;;5014057;28;20046;-70
2022/05/16 01:21:18;;;;;;;7.38;2.97;;;12.80;99.90;;;;;;5014723;28;20038;-69
2022/05/16 01:23:55;;;;;;;6.45;2.97;;;12.80;99.90;;;;;;5013985;28;20045;-70
2022/05/16 01:26:24;;;;;;;5.93;3.33;;;12.80;99.90;;;;;;5014247;28;20050;-70
2022/05/16 01:28:54;;;;;;;6.15;3.10;;;12.80;99.90;;;;;;5013861;28;20046;-70
2022/05/16 01:31:20;;;;;;;9.20;3.47;;;12.80;99.90;;;;;;5013800;28;20100;-70
2022/05/16 01:33:46;;;;;;;6.45;3.28;;;12.80;99.90;;;;;;5014214;28;20050;-69
2022/05/16 01:36:12;;;;;;;6.55;3.17;;;12.80;99.90;;;;;;5013831;28;20429;-70
2022/05/16 01:38:39;;;;;;;5.45;2.88;;;12.80;99.90;;;;;;5014085;28;20081;-69
2022/05/16 01:41:13;;;;;;;4.40;3.05;;;12.80;99.90;;;;;;5013732;28;20126;-69
2022/05/16 01:43:45;;;;;;;7.75;2.92;;;12.80;99.90;;;;;;5014565;28;20104;-70
2022/05/16 01:46:16;;;;;;;4.95;2.50;;;12.70;99.90;;;;;;5014325;28;20062;-70
2022/05/16 01:48:43;;;;;;;4.70;2.53;;;12.80;99.90;;;;;;5013692;28;20441;-70
2022/05/16 01:51:11;;;;;;;6.13;2.90;;;12.70;99.90;;;;;;5013624;28;20100;-70
2022/05/16 01:53:39;;;;;;;6.10;2.90;;;12.70;99.90;;;;;;5013886;28;20491;-70
2022/05/16 01:56:04;;;;;;;4.35;2.30;;;12.70;99.90;;;;;;5013679;28;20054;-70
2022/05/16 01:58:30;;;;;;;5.57;2.85;;;12.70;99.90;;;;;;5013339;28;20042;-70
2022/05/16 02:00:56;;;;;;;5.50;3.00;;;12.60;99.90;;;;;;5013509;28;20042;-70
2022/05/16 02:03:22;;;;;;;5.10;3.00;;;12.60;99.90;;;;;;5014106;28;20129;-70
2022/05/16 02:05:48;;;;;;;5.25;2.40;;;12.60;99.90;;;;;;5013793;28;20538;-70
2022/05/16 02:08:15;;;;;;;6.13;2.75;;;12.60;99.90;;;;;;5013498;28;20041;-70
2022/05/16 02:10:42;;;;;;;6.13;2.72;;;12.60;99.90;;;;;;5013493;28;20474;-70
2022/05/16 02:13:08;;;;;;;6.82;3.05;;;12.60;99.90;;;;;;5013982;28;20399;-69
2022/05/16 02:15:36;;;;;;;7.47;3.10;;;12.60;99.90;;;;;;5013937;28;20383;-70
2022/05/16 02:18:02;;;;;;;4.70;2.70;;;12.60;99.90;;;;;;5012266;28;20050;-70
2022/05/16 02:20:29;;;;;;;8.02;2.80;;;12.50;99.90;;;;;;5013002;28;20483;-70
2022/05/16 02:25:43;;;;;;;6.35;2.60;;;12.50;99.90;;;;;;5013915;28;20064;-69
2022/05/16 02:28:11;;;;;;;5.55;2.72;;;12.60;99.90;;;;;;5014118;28;20377;-70
2022/05/16 02:30:37;;;;;;;6.53;2.55;;;12.60;99.90;;;;;;5013350;28;20116;-70
2022/05/16 02:33:04;;;;;;;4.10;2.50;;;12.60;99.90;;;;;;5013238;28;20064;-70
2022/05/16 02:35:31;;;;;;;4.57;2.15;;;12.60;99.90;;;;;;5013577;28;20499;-70
2022/05/16 02:37:58;;;;;;;5.55;2.70;;;12.50;99.90;;;;;;5013276;28;20072;-70
2022/05/16 02:40:29;;;;;;;4.43;2.50;;;12.50;99.90;;;;;;5013109;28;20041;-69
2022/05/16 02:42:55;;;;;;;8.05;3.38;;;12.50;99.90;;;;;;5014562;28;20058;-70
2022/05/16 02:45:22;;;;;;;4.20;2.58;;;12.50;99.90;;;;;;5016865;28;20105;-70
2022/05/16 02:47:47;;;;;;;5.22;2.70;;;12.40;99.90;;;;;;5016769;28;20065;-70
2022/05/16 02:50:13;;;;;;;4.15;2.65;;;12.40;99.90;;;;;;5017595;28;20422;-70
2022/05/16 02:52:39;;;;;;;6.57;2.70;;;12.40;99.90;;;;;;5016705;28;20049;-69
2022/05/16 02:55:06;;;;;;;7.05;2.88;;;12.40;99.90;;;;;;5016635;28;20406;-70
2022/05/16 02:57:32;;;;;;;7.07;2.35;;;12.30;99.90;;;;;;5016613;28;20046;-70
2022/05/16 02:59:58;;;;;;;6.95;2.60;;;12.30;99.90;;;;;;5016571;28;20062;-69
2022/05/16 03:02:24;;;;;;;8.15;2.67;;;12.40;99.90;;;;;;5016491;28;20046;-70
2022/05/16 03:04:50;;;;;;;5.43;2.50;;;12.30;99.90;;;;;;5016615;28;20475;-70
2022/05/16 03:07:16;;;;;;;4.00;2.70;;;12.30;99.90;;;;;;5015459;28;20053;-70
2022/05/16 03:09:41;;;;;;;5.53;2.47;;;12.30;99.90;;;;;;5015241;28;20054;-70
2022/05/16 03:12:08;;;;;;;7.47;2.58;;;12.30;99.90;;;;;;5015295;28;20390;-70
2022/05/16 03:14:35;;;;;;;5.45;2.40;;;12.20;99.90;;;;;;5016327;28;20084;-70
2022/05/16 03:17:01;;;;;;;5.45;2.88;;;12.30;99.90;;;;;;5015065;28;20056;-70
2022/05/16 03:19:27;;;;;;;7.28;2.60;;;12.20;99.90;;;;;;5016200;28;20046;-70
2022/05/16 03:21:52;;;;;;;5.55;2.50;;;12.20;99.90;;;;;;5014905;28;20049;-70
2022/05/16 03:24:18;;;;;;;6.50;2.53;;;12.20;99.90;;;;;;5015779;28;20052;-70
2022/05/16 03:26:44;;;;;;;6.00;2.40;;;12.10;99.90;;;;;;5016564;28;20049;-70
2022/05/16 03:29:11;;;;;;;4.82;2.58;;;12.10;99.90;;;;;;5016541;28;20049;-69
2022/05/16 03:31:37;;;;;;;4.57;2.38;;;12.10;99.90;;;;;;5015779;28;20061;-70
2022/05/16 03:34:03;;;;;;;3.92;2.35;;;12.10;99.90;;;;;;5015026;28;20050;-70
2022/05/16 03:36:29;;;;;;;5.65;1.92;;;12.10;99.90;;;;;;5015861;28;20050;-70
2022/05/16 03:41:39;;;;;;;4.25;2.00;;;12.10;99.90;;;;;;5016198;28;20567;-70
2022/05/16 03:44:05;;;;;;;5.40;2.40;;;12.00;99.90;;;;;;5015521;28;20053;-70
2022/05/16 03:46:31;;;;;;;7.72;2.42;;;12.00;99.90;;;;;;5015396;28;20058;-70
2022/05/16 03:48:56;;;;;;;6.60;2.35;;;12.00;99.90;;;;;;5015597;28;20483;-70
2022/05/16 03:51:22;;;;;;;6.35;2.22;;;11.90;99.90;;;;;;5015618;28;20080;-70
2022/05/16 03:53:48;;;;;;;4.93;2.10;;;11.90;99.90;;;;;;5014941;28;20053;-70
2022/05/16 03:56:23;;;;;;;4.65;2.42;;;11.90;99.90;;;;;;5015620;28;20124;-69
2022/05/16 03:58:49;;;;;;;5.65;2.47;;;11.90;99.90;;;;;;5014873;28;20046;-70
2022/05/16 04:01:15;;;;;;;5.05;2.60;;;11.90;99.90;;;;;;5015439;28;20045;-70
2022/05/16 04:03:41;;;;;;;5.93;2.38;;;12.00;99.90;;;;;;5014722;28;20386;-70
2022/05/16 04:06:07;;;;;;;4.35;2.33;;;11.90;99.90;;;;;;5015806;28;20041;-69
2022/05/16 04:08:33;;;;;;;5.57;2.20;;;12.00;99.90;;;;;;5015273;28;20453;-70
2022/05/16 04:11:00;;;;;;;4.78;2.28;;;12.00;99.90;;;;;;5014948;28;20072;-70
2022/05/16 04:13:26;;;;;;;4.57;2.10;;;12.00;99.90;;;;;;5015779;28;20383;-69
2022/05/16 04:15:53;;;;;;;4.10;1.90;;;12.10;99.90;;;;;;5015031;28;20049;-70
2022/05/16 04:18:19;;;;;;;5.38;2.35;;;12.10;99.90;;;;;;5014888;28;20049;-70
2022/05/16 04:20:45;;;;;;;4.50;2.20;;;12.20;99.90;;;;;;5013927;28;20042;-70
2022/05/16 04:23:11;;;;;;;6.15;2.30;;;12.30;99.90;;;;;;5014714;28;20136;-70
2022/05/16 04:25:37;;;;;;;4.85;2.58;;;12.20;99.90;;;;;;5014952;28;20132;-70
2022/05/16 04:28:08;;;;;;;4.22;2.38;;;12.30;99.90;;;;;;5015685;28;20120;-70
2022/05/16 04:30:34;;;;;;;4.85;2.10;;;12.40;99.90;;;;;;5015452;28;20048;-70
2022/05/16 04:33:00;;;;;;;6.57;2.35;;;12.50;99.90;;;;;;5015434;28;20064;-70
2022/05/16 04:35:26;;;;;;;4.53;1.98;;;12.50;99.90;;;;;;5014708;28;20470;-70
2022/05/16 04:37:52;;;;;;;4.90;2.40;;;12.50;99.90;;;;;;5014757;28;20525;-70
2022/05/16 04:40:19;;;;;;;3.72;2.35;;;12.50;99.90;;;;;;5013660;28;20081;-70
2022/05/16 04:42:45;;;;;;;7.50;2.67;;;12.50;99.90;;;;;;5014650;28;20434;-70
2022/05/16 04:45:15;;;;;;;5.65;2.30;;;12.50;99.90;;;;;;5014465;28;20054;-70
2022/05/16 04:47:43;;;;;;;7.55;2.60;;;12.50;99.90;;;;;;5014534;28;20089;-69
2022/05/16 04:50:10;;;;;;;7.13;2.40;;;12.50;99.90;;;;;;5014543;28;20042;-70
2022/05/16 04:52:36;;;;;;;4.18;2.22;;;12.50;99.90;;;;;;5014944;28;20046;-70
2022/05/16 04:55:02;;;;;;;5.80;2.45;;;12.50;99.90;;;;;;5014436;28;20042;-70
2022/05/16 04:57:27;;;;;;;4.68;2.38;;;12.50;99.90;;;;;;5014885;28;20113;-70
2022/05/16 04:59:53;;;;;;;7.85;2.65;;;12.50;99.90;;;;;;5013292;28;20129;-70
2022/05/16 05:02:19;;;;;;;4.57;2.83;;;12.60;99.90;;;;;;5014328;28;20057;-70
2022/05/16 05:04:45;;;;;;;5.15;2.30;;;12.60;99.90;;;;;;5014231;28;20446;-70
2022/05/16 05:07:12;;;;;;;4.80;2.53;;;12.60;99.90;;;;;;5014250;28;20049;-70
2022/05/16 05:15:09;;;;;;;5.93;2.60;;;12.70;99.90;;;;;;5014913;28;20450;-70
2022/05/16 05:17:35;;;;;;;5.43;2.65;;;12.90;99.90;;;;;;5014202;28;20471;-70
2022/05/16 05:20:02;;;;;;;5.03;2.42;;;13.00;99.90;;;;;;5013924;28;20052;-70
2022/05/16 05:22:28;;;;;;;5.03;2.70;;;13.10;99.90;;;;;;5014011;28;20129;-69
2022/05/16 05:24:54;;;;;;;5.88;2.42;;;13.10;99.90;;;;;;5014723;28;20081;-70
2022/05/16 05:27:20;;;;;;;5.68;2.42;;;13.10;99.90;;;;;;5013000;28;20590;-70
2022/05/16 05:29:48;;;;;;;4.97;2.47;;;13.20;99.90;;;;;;5012981;28;20084;-70
2022/05/16 05:32:15;;;;;;;7.25;2.65;;;13.30;99.90;;;;;;5014148;28;20115;-69
2022/05/16 05:34:41;;;;;;;5.32;2.55;;;13.40;99.90;;;;;;5013538;28;20547;-70
2022/05/16 05:37:07;;;;;;;4.18;2.40;;;13.50;99.90;;;;;;5013473;28;20129;-70
2022/05/16 05:39:35;;;;;;;6.32;3.05;;;13.50;99.90;;;;;;5013829;28;20042;-70
2022/05/16 05:42:02;;;;;;;5.97;3.15;;;13.60;99.90;;;;;;5012769;28;20055;-70
2022/05/16 05:44:27;;;;;;;4.63;2.38;;;13.70;99.90;;;;;;5013726;28;20434;-69
2022/05/16 05:46:53;;;;;;;6.15;2.60;;;13.80;99.90;;;;;;5014029;28;20096;-70
2022/05/16 05:49:19;;;;;;;5.22;2.55;;;13.80;99.90;;;;;;5013967;28;20050;-70
2022/05/16 05:51:45;;;;;;;5.15;2.38;;;13.90;99.90;;;;;;5013312;28;20494;-70
2022/05/16 05:54:11;;;;;;;6.55;2.65;;;14.10;99.90;;;;;;5013606;28;20042;-69
2022/05/16 05:56:37;;;;;;;6.60;2.70;;;14.30;99.90;;;;;;5014145;28;20050;-70
2022/05/16 05:59:04;;;;;;;4.30;2.20;;;14.40;99.90;;;;;;5013677;28;20049;-69
2022/05/16 06:01:31;;;;;;;6.05;2.50;;;14.60;99.90;;;;;;5013998;28;20053;-70
2022/05/16 06:03:57;;;;;;;5.63;2.30;;;14.70;99.90;;;;;;5013540;28;20045;-69
2022/05/16 06:06:23;;;;;;;5.90;2.55;;;14.80;99.90;;;;;;5013549;28;20100;-70
2022/05/16 06:08:48;;;;;;;6.53;2.42;;;15.00;99.90;;;;;;5014052;28;20434;-70
2022/05/16 06:11:14;;;;;;;6.68;2.60;;;15.10;99.90;;;;;;5013561;28;20145;-69
2022/05/16 06:13:40;;;;;;;4.90;2.40;;;15.20;99.90;;;;;;5013476;28;20482;-69
2022/05/16 06:16:08;;;;;;;5.00;2.45;;;15.30;99.90;;;;;;5013458;28;20100;-69
2022/05/16 06:18:35;;;;;;;5.53;2.80;;;15.40;99.90;;;;;;5016946;28;20104;-70
2022/05/16 06:21:01;;;;;;;5.57;2.20;;;15.50;99.90;;;;;;5017269;28;20045;-71
2022/05/16 06:23:27;;;;;;;4.80;2.63;;;15.60;99.90;;;;;;5017295;28;20081;-70
2022/05/16 06:25:53;;;;;;;4.13;2.53;;;15.60;99.90;;;;;;5017187;28;20092;-71
2022/05/16 06:28:27;;;;;;;4.15;2.22;;;15.70;99.90;;;;;;5017414;28;20061;-70
2022/05/16 06:30:53;;;;;;;5.32;2.78;;;15.90;99.90;;;;;;5017757;28;20045;-70
2022/05/16 06:33:22;;;;;;;5.20;2.75;;;16.00;99.90;;;;;;5017022;28;20446;-70
2022/05/16 06:35:48;;;;;;;6.07;2.78;;;16.10;99.90;;;;;;5017008;28;20499;-70
2022/05/16 06:38:17;;;;;;;5.70;2.42;;;16.30;99.90;;;;;;5016677;28;20584;-70
2022/05/16 06:40:46;;;;;;;6.60;2.85;;;16.30;99.90;;;;;;5017339;28;20045;-70
2022/05/16 06:43:12;;;;;;;4.38;2.25;;;16.40;99.90;;;;;;5017318;28;20050;-70
2022/05/16 06:45:38;;;;;;;8.15;2.13;;;16.60;99.90;;;;;;5016656;28;20489;-70
2022/05/16 06:48:05;;;;;;;4.85;2.10;;;16.60;99.90;;;;;;5016667;28;20089;-70
2022/05/16 06:50:33;;;;;;;6.72;2.88;;;16.70;99.90;;;;;;5015764;28;20069;-70
2022/05/16 06:52:58;;;;;;;6.03;2.53;;;16.80;99.90;;;;;;5016921;28;20050;-70
2022/05/16 06:55:25;;;;;;;5.95;2.47;;;17.00;99.90;;;;;;5017377;28;20348;-70
2022/05/16 06:57:51;;;;;;;5.53;2.40;;;17.10;99.90;;;;;;5016601;28;20133;-70
2022/05/16 07:00:18;;;;;;;6.03;2.22;;;17.20;99.90;;;;;;5016467;28;20132;-70
2022/05/16 07:02:44;;;;;;;4.47;2.05;;;17.40;99.90;;;;;;5016551;28;20132;-70
2022/05/16 07:05:09;;;;;;;5.82;2.40;;;17.50;99.90;;;;;;5016337;28;20145;-70
2022/05/16 07:07:35;;;;;;;3.80;1.90;;;17.60;99.90;;;;;;5016177;28;20050;-70
2022/05/16 07:10:02;;;;;;;6.25;2.22;;;17.70;99.90;;;;;;5016147;28;20222;-71
2022/05/16 07:12:28;;;;;;;4.57;2.22;;;17.80;99.90;;;;;;5016252;28;20046;-71
2022/05/16 07:14:54;;;;;;;4.85;2.20;;;17.90;99.90;;;;;;5016178;28;20053;-69
2022/05/16 07:17:19;;;;;;;6.32;2.35;;;18.00;99.90;;;;;;5016509;28;20088;-69
2022/05/16 07:19:46;;;;;;;7.90;2.30;;;18.10;99.90;;;;;;5015399;28;20038;-69
2022/05/16 07:22:22;;;;;;;5.10;2.15;;;18.10;99.90;;;;;;5016244;28;20049;-71
2022/05/16 07:24:50;;;;;;;5.90;2.10;;;18.20;99.90;;;;;;5016431;28;20432;-71
2022/05/16 07:30:00;;;;;;;5.97;2.30;;;18.30;99.90;;;;;;5016656;28;20195;-70
2022/05/16 07:32:41;;;;;;;5.60;2.40;;;18.40;99.90;;;;;;5015901;28;20533;-71
2022/05/16 07:35:08;;;;;;;5.00;2.38;;;18.40;99.90;;;;;;5015349;28;20117;-71
2022/05/16 07:37:34;;;;;;;7.40;2.33;;;18.50;99.90;;;;;;5016495;28;20050;-69
2022/05/16 07:39:59;;;;;;;6.22;2.38;;;18.60;99.90;;;;;;5015623;28;20489;-69
2022/05/16 07:42:25;;;;;;;6.18;2.28;;;18.70;99.90;;;;;;5015782;28;20049;-70
2022/05/16 07:44:51;;;;;;;4.25;2.20;;;18.80;99.90;;;;;;5015202;28;20050;-70
2022/05/16 07:47:17;;;;;;;6.88;2.47;;;18.90;99.90;;;;;;5015848;28;20060;-70
2022/05/16 07:49:42;;;;;;;5.22;1.90;;;19.00;99.90;;;;;;5015460;28;20050;-71
2022/05/16 07:52:09;;;;;;;5.25;2.20;;;19.20;99.90;;;;;;5015776;28;20046;-71
2022/05/16 07:54:37;;;;;;;6.93;2.20;;;19.40;99.90;;;;;;5015485;28;20056;-71
2022/05/16 07:57:04;;;;;;;3.92;2.22;;;19.50;99.90;;;;;;5015501;28;20049;-70
2022/05/16 07:59:30;;;;;;;3.83;2.00;;;19.60;99.90;;;;;;5015258;28;20053;-71
2022/05/16 08:01:56;;;;;;;6.65;2.60;;;19.70;99.90;;;;;;4982440;28;20478;-71
2022/05/16 08:04:22;;;;;;;5.32;2.60;;;19.80;99.90;;;;;;5015755;28;20081;-71
2022/05/16 08:06:47;;;;;;;4.72;2.05;;;19.90;99.90;;;;;;5015488;28;20421;-72
2022/05/16 08:11:57;;;;;;;5.63;2.15;;;19.80;99.90;;;;;;5015949;28;20048;-71
2022/05/16 08:14:23;;;;;;;4.93;2.47;;;19.80;99.90;;;;;;5015082;28;20125;-70
2022/05/16 08:16:49;;;;;;;5.22;2.45;;;19.80;99.90;;;;;;5014842;28;20498;-69
2022/05/16 08:19:14;;;;;;;4.63;2.03;;;19.90;99.90;;;;;;5014257;28;20063;-69
2022/05/16 08:21:41;;;;;;;5.72;2.63;;;20.10;99.90;;;;;;5014787;28;20176;-70
2022/05/16 08:24:09;;;;;;;3.40;1.88;;;20.30;99.90;;;;;;5015024;28;20080;-70
2022/05/16 08:26:36;;;;;;;7.50;2.20;;;20.40;99.90;;;;;;5013922;28;20046;-69
2022/05/16 08:29:02;;;;;;;5.50;2.28;;;20.60;99.90;;;;;;5014795;28;20046;-70
2022/05/16 08:31:28;;;;;;;5.90;2.20;;;20.80;99.90;;;;;;5015111;28;20045;-70
2022/05/16 08:33:56;;;;;;;4.20;2.22;;;21.00;99.90;;;;;;5014778;28;20387;-71
2022/05/16 08:41:57;;;;;;;3.40;2.20;;;21.40;99.90;;;;;;5014545;28;20160;-71
2022/05/16 08:44:50;;;;;;;6.32;2.10;;;21.40;99.90;;;;;;5015200;28;20120;-72
2022/05/16 08:47:40;;;;;;;5.18;2.97;;;21.50;99.90;;;;;;5008825;28;20092;-70
2022/05/16 08:50:13;;;;;;;7.30;2.20;;;21.60;99.90;;;;;;5014190;28;20042;-72
2022/05/16 08:52:42;;;;;;;6.68;2.00;;;21.70;99.90;;;;;;5014478;28;20447;-70
2022/05/16 08:55:25;;;;;;;5.47;2.35;;;21.80;99.90;;;;;;5013580;28;20057;-70
2022/05/16 08:58:01;;;;;;;3.85;2.25;;;21.90;99.90;;;;;;5014169;28;20057;-70
2022/05/16 09:00:44;;;;;;;4.57;2.28;;;22.10;99.90;;;;;;5013533;28;20080;-70
2022/05/16 09:03:16;;;;;;;6.57;2.20;;;22.30;99.90;;;;;;5014031;28;20439;-72
2022/05/16 09:05:52;;;;;;;5.93;2.72;;;22.50;99.90;;;;;;5013495;28;20046;-71
2022/05/16 09:08:49;;;;;;;4.70;2.58;;;22.60;99.90;;;;;;5014283;28;20112;-71
2022/05/16 09:11:29;;;;;;;5.47;2.17;;;22.60;99.90;;;;;;5013358;28;20042;-71
2022/05/16 09:13:58;;;;;;;6.53;2.33;;;22.60;99.90;;;;;;5013420;28;20045;-71
2022/05/16 09:16:44;;;;;;;9.07;2.45;;;22.50;99.90;;;;;;4996792;28;20048;-70
2022/05/16 09:19:27;;;;;;;5.55;2.30;;;22.50;99.90;;;;;;5013299;28;20046;-70
2022/05/16 09:22:22;;;;;;;5.32;2.42;;;22.60;99.90;;;;;;5012036;28;20120;-70
2022/05/16 09:24:53;;;;;;;5.05;1.83;;;22.80;99.90;;;;;;5013557;28;20038;-70
2022/05/16 09:30:22;;;;;;;5.28;1.98;;;22.60;99.90;;;;;;5013621;28;20053;-71
2022/05/16 09:32:55;;;;;;;6.30;2.28;;;22.50;99.90;;;;;;5013736;28;20045;-71
2022/05/16 09:35:38;;;;;;;9.18;2.50;;;22.40;99.90;;;;;;5013114;28;20117;-72
2022/05/16 09:38:05;;;;;;;3.65;1.73;;;22.40;99.90;;;;;;5013575;28;20079;-72
2022/05/16 09:40:40;;;;;;;4.10;1.98;;;22.40;99.90;;;;;;5012854;28;20481;-71
2022/05/16 09:43:33;;;;;;;4.35;2.13;;;22.40;99.90;;;;;;5013313;28;20064;-72
2022/05/16 09:46:05;;;;;;;4.72;2.30;;;22.40;99.90;;;;;;4944931;28;1986530;-72
2022/05/16 09:48:31;;;;;;;4.32;2.00;;;22.40;99.90;;;;;;5013517;28;20065;-69
2022/05/16 09:51:06;;;;;;;4.70;2.20;;;22.40;99.90;;;;;;5013213;28;20469;-71
2022/05/16 09:53:39;;;;;;;4.65;2.45;;;22.40;99.90;;;;;;5013384;28;20187;-72
2022/05/16 09:56:28;;;;;;;6.53;1.98;;;22.40;99.90;;;;;;5013548;28;20042;-70
2022/05/16 09:59:00;;;;;;;5.85;2.20;;;22.50;99.90;;;;;;5014113;28;20046;-72
2022/05/16 10:01:40;;;;;;;5.20;2.08;;;22.60;99.90;;;;;;5012601;28;20370;-72
2022/05/16 10:04:09;;;;;;;5.13;2.30;;;22.70;99.90;;;;;;5013513;28;20129;-71
2022/05/16 10:06:37;;;;;;;5.07;1.95;;;22.90;99.90;;;;;;5013416;28;20046;-70
2022/05/16 10:09:14;;;;;;;4.68;2.70;;;22.90;99.90;;;;;;5013498;28;20041;-72
2022/05/16 10:11:43;;;;;;;5.97;2.63;;;23.00;99.90;;;;;;5013411;28;20133;-71
2022/05/16 10:14:09;;;;;;;5.53;2.15;;;22.90;99.90;;;;;;5013373;28;20077;-71
2022/05/16 10:16:39;;;;;;;5.03;2.33;;;22.90;99.90;;;;;;5013162;28;20088;-71
2022/05/16 10:19:10;;;;;;;5.53;2.25;;;22.90;99.90;;;;;;5013994;28;20057;-70
2022/05/16 10:21:53;;;;;;;5.60;2.42;;;22.90;99.90;;;;;;5013577;28;20042;-70
2022/05/16 10:24:20;;;;;;;5.40;2.28;;;22.90;99.90;;;;;;5014076;28;20463;-70
2022/05/16 10:26:51;;;;;;;6.88;2.53;;;23.00;99.90;;;;;;5013373;28;20435;-70
2022/05/16 10:29:22;;;;;;;6.63;2.60;;;23.20;99.90;;;;;;5013324;28;20089;-70
2022/05/16 10:34:53;;;;;;;4.38;2.50;;;23.40;99.90;;;;;;5013822;28;20103;-70
2022/05/16 10:37:20;;;;;;;4.60;2.20;;;23.70;99.90;;;;;;5013193;28;20085;-70
2022/05/16 10:39:56;;;;;;;5.70;2.53;;;24.00;99.90;;;;;;5013162;28;20050;-70
2022/05/16 10:42:38;;;;;;;4.72;1.85;;;24.20;99.90;;;;;;5013038;28;20053;-70
2022/05/16 10:45:17;;;;;;;4.53;2.00;;;24.30;99.90;;;;;;5013764;28;20058;-70
2022/05/16 10:47:58;;;;;;;4.88;2.25;;;24.40;99.90;;;;;;5013515;28;20053;-70
2022/05/16 10:50:49;;;;;;;7.18;2.10;;;24.40;99.90;;;;;;5013355;28;20092;-70
2022/05/16 10:53:25;;;;;;;7.65;2.50;;;24.40;99.90;;;;;;5013250;28;20398;-70
2022/05/16 10:56:00;;;;;;;7.63;2.50;;;24.40;99.90;;;;;;5013222;28;20085;-71
2022/05/16 10:58:50;;;;;;;6.07;2.58;;;24.50;99.90;;;;;;5013254;28;20383;-72
2022/05/16 11:01:24;;;;;;;7.32;2.22;;;24.50;99.90;;;;;;5012652;28;20046;-70
2022/05/16 11:04:31;;;;;;;4.15;2.50;;;24.40;99.90;;;;;;5015209;28;20125;-72
2022/05/16 11:07:07;;;;;;;4.93;2.33;;;24.30;99.90;;;;;;5016524;28;20103;-71
2022/05/16 11:09:58;;;;;;;5.63;3.00;;;24.30;99.80;;;;;;5017136;28;20053;-71
2022/05/16 11:12:36;;;;;;;5.97;2.67;;;24.20;99.90;;;;;;5031677;28;20034;-72
2022/05/16 11:15:15;;;;;;;4.82;2.60;;;24.10;99.90;;;;;;5016337;28;20046;-71
2022/05/16 11:18:05;;;;;;;7.05;2.70;;;24.10;99.90;;;;;;4998724;28;20046;-72
2022/05/16 11:20:44;;;;;;;7.47;2.20;;;24.10;99.90;;;;;;5016014;28;20077;-71
2022/05/16 11:23:37;;;;;;;4.93;2.38;;;24.00;99.90;;;;;;5016310;28;20544;-71
2022/05/16 11:26:16;;;;;;;7.72;2.63;;;24.00;99.90;;;;;;5016031;28;20045;-71
2022/05/16 11:29:20;;;;;;;5.97;2.50;;;23.90;99.90;;;;;;5016351;28;20497;-68
2022/05/16 11:32:00;;;;;;;6.18;2.58;;;23.90;99.90;;;;;;5016583;28;20075;-68
2022/05/16 11:34:35;;;;;;;7.22;3.30;;;23.80;99.90;;;;;;5015922;28;20053;-68
2022/05/16 11:37:13;;;;;;;7.65;2.83;;;23.70;99.90;;;;;;5015853;28;20049;-68
2022/05/16 11:39:53;;;;;;;5.20;2.50;;;23.70;99.90;;;;;;5015861;28;20045;-68
2022/05/16 11:42:50;;;;;;;4.82;2.42;;;23.60;99.90;;;;;;5016284;28;20041;-68
2022/05/16 11:45:42;;;;;;;6.20;2.95;;;23.60;99.90;;;;;;5015714;28;20068;-69
2022/05/16 11:48:26;;;;;;;4.93;2.90;;;23.60;99.90;;;;;;5015482;28;20046;-69
2022/05/16 11:51:01;;;;;;;4.47;2.78;;;23.50;99.90;;;;;;5015559;28;20450;-70
2022/05/16 11:53:48;;;;;;;3.97;2.50;;;23.50;99.90;;;;;;5016131;28;20387;-69
2022/05/16 12:02:17;;;;;;;5.30;2.92;;;23.30;99.90;;;;;;5015801;28;20053;-69
2022/05/16 12:04:47;;;;;;;6.82;3.05;;;23.20;99.90;;;;;;5015397;28;20042;-69
2022/05/16 12:07:35;;;;;;;6.82;2.78;;;23.10;99.90;;;;;;5016091;28;20462;-69
2022/05/16 12:10:22;;;;;;;6.53;3.00;;;23.00;99.90;;;;;;5015341;28;20124;-69
2022/05/16 12:13:23;;;;;;;6.88;3.38;;;22.90;99.90;;;;;;5015292;28;20132;-69
2022/05/16 12:16:11;;;;;;;6.65;3.25;;;22.80;99.90;;;;;;5014213;28;20054;-69
2022/05/16 12:18:39;;;;;;;5.57;3.47;;;22.70;99.90;;;;;;5015036;28;20050;-69
2022/05/16 12:21:09;;;;;;;6.57;3.20;;;22.70;99.90;;;;;;5014643;28;20491;-71
2022/05/16 12:23:44;;;;;;;5.50;2.95;;;22.70;99.90;;;;;;5014878;28;20041;-72
2022/05/16 12:26:11;;;;;;;5.90;3.10;;;22.70;99.90;;;;;;5014533;28;20529;-71
2022/05/16 12:28:37;;;;;;;5.28;3.40;;;22.60;99.90;;;;;;5014855;28;20046;-71
2022/05/16 12:31:06;;;;;;;6.38;3.47;;;22.70;99.90;;;;;;5014800;28;20081;-70
2022/05/16 12:33:49;;;;;;;6.90;3.38;;;22.70;99.90;;;;;;5014685;28;20050;-70
2022/05/16 12:36:25;;;;;;;8.48;3.15;;;22.70;99.90;;;;;;5014687;28;20079;-74
2022/05/16 12:39:02;;;;;;;7.20;3.38;;;22.80;99.90;;;;;;5014857;28;20497;-71
2022/05/16 12:42:07;;;;;;;6.07;2.78;;;22.80;99.90;;;;;;5014624;28;20491;-72
2022/05/16 12:44:55;;;;;;;7.20;3.10;;;23.00;99.90;;;;;;4994976;28;20400;-70
2022/05/16 12:47:47;;;;;;;6.97;2.80;;;23.10;99.90;;;;;;5014319;28;20490;-71
2022/05/16 12:50:43;;;;;;;5.75;2.85;;;23.20;99.90;;;;;;5014535;28;20100;-71
2022/05/16 12:53:35;;;;;;;4.93;2.70;;;23.30;99.90;;;;;;5015289;28;20046;-72
2022/05/16 12:56:12;;;;;;;4.28;2.05;;;23.50;99.90;;;;;;5014032;28;20544;-72
2022/05/16 12:58:52;;;;;;;3.70;2.25;;;23.60;99.90;;;;;;5014539;28;20465;-70
2022/05/16 13:01:33;;;;;;;5.68;2.60;;;23.70;99.90;;;;;;5014272;28;20038;-71
2022/05/16 13:04:29;;;;;;;6.22;2.85;;;23.70;99.90;;;;;;5014810;28;20099;-69
2022/05/16 13:07:12;;;;;;;6.20;2.60;;;23.60;99.90;;;;;;5014285;28;20060;-70
2022/05/16 13:09:50;;;;;;;3.80;2.53;;;23.60;99.90;;;;;;5014250;28;20081;-70
2022/05/16 13:12:30;;;;;;;5.78;2.50;;;23.60;99.90;;;;;;5014863;28;20124;-70
2022/05/16 13:15:10;;;;;;;4.90;2.40;;;23.50;99.90;;;;;;5014206;28;20046;-69
2022/05/16 13:17:50;;;;;;;7.18;3.22;;;23.50;99.90;;;;;;5014550;28;20364;-75
2022/05/16 13:20:20;;;;;;;5.20;2.58;;;23.40;99.90;;;;;;5014514;28;20115;-71
2022/05/16 13:22:48;;;;;;;4.85;2.45;;;23.30;99.90;;;;;;5014038;28;20042;-71
2022/05/16 13:25:15;;;;;;;4.80;2.42;;;23.20;99.90;;;;;;5014564;28;20085;-71
2022/05/16 13:30:27;;;;;;;4.82;2.80;;;23.00;99.90;;;;;;5013897;28;20541;-72
2022/05/16 13:32:53;;;;;;;3.40;2.38;;;22.90;99.90;;;;;;5013975;28;20053;-71
2022/05/16 13:35:37;;;;;;;5.07;2.55;;;22.80;99.90;;;;;;5013865;28;20046;-71
2022/05/16 13:38:08;;;;;;;5.20;2.67;;;22.80;99.90;;;;;;5013739;28;20173;-71
2022/05/16 13:40:39;;;;;;;6.20;2.80;;;22.70;99.90;;;;;;5012397;28;20167;-71
2022/05/16 13:43:30;;;;;;;4.07;2.50;;;22.70;99.90;;;;;;5013707;28;20049;-72
2022/05/16 13:46:09;;;;;;;5.95;3.05;;;22.60;99.90;;;;;;5012082;28;20061;-72